Arlington, WY

5:24 AM MDT on July 25, 2014 (GMT -0600)
KWYMEDIC2 Elev 6646 ft | 41.89 °N, 106.19 °W | Change Station

Current weather conditions updated 12 minutes ago

Mostly Cloudy
Mostly Cloudy
57.3 °F
Feels Like 57.3 °F
N
3.0
Wind Variable Wind from NW
Gusts 4.0 mph

Today is forecast to be nearly the same temperature as yesterday.

Today
High -- | Low -- °F
--% Chance of Precip.
Yesterday
High -- | Low -- °F
Precip. -- in
5:50 AM 8:28 PM
Waning Crescent, 2% visible
Pressure 30.21 in
Visibility 10.0 miles
Clouds Overcast 1800 ft
Dew Point 45 °F
Humidity 63%
Rainfall 0.00 in
Snow Depth Not available.
UV 0 out of 12
Pollen 7.40 out of 12
Air Quality Not available.
Flu Activity Not available.
METAR KEHY 251115Z AUTO 00000KT 10SM OVC018 16/06 A3021 RMK AO2

More Conditions Fewer Conditions

Pressure 30.21 in
Visibility 10.0 miles
Clouds Overcast 1800 ft
Dew Point 45 °F
Humidity 63%
Rainfall 0.00 in
Snow Depth Not available.
UV 0 out of 12
Pollen 7.40 out of 12
Air Quality Not available.
Flu Activity Not available.
METAR KEHY 251115Z AUTO 00000KT 10SM OVC018 16/06 A3021 RMK AO2

More Conditions Fewer Conditions

10-Day Weather Forecast

Almanac

Astronomy

Jul. 25, 2014 Rise Set
Actual Time 5:50 AM MDT 8:28 PM MDT
Civil Twilight 5:18 AM MDT 9:00 PM MDT
Nautical Twilight 4:38 AM MDT 9:40 PM MDT
Astronomical Twilight 3:52 AM MDT 10:26 PM MDT
Moon 4:53 AM MDT 7:26 PM MDT
Length of Visible Light 15h 42m
Length of Day
14h 37m
Tomorrow will be 1m 54s shorter.
Waning Crescent, 2% of the Moon is Illuminated
Today
Waning Crescent
Jul 26
New
Aug 3
First Quarter
Aug 10
Full
Aug 17
Last Quarter

Today's Extremes

State Highs State Lows

Community

WunderPhotos

Upload Photos

1,737,289 photos uploaded!

Nearby

Snow Depth

Station Depth Elevation
Sand Lake 0 in 10050 ft
Brooklyn Lake 0 in 10220 ft
Windy Peak 0 in 7900 ft
South Brush Creek 0 in 8440 ft
Laprele Creek 0 in 8375 ft

Earthquake Activity

City Distance Mag. Time & Date
No recent earthquake activity has been reported nearby.
Minimum magnitude displayed is 2.5.

Coastal Water Temperatures

Place Temperature
No Stations Reporting

Nearby Weather Stations

Station Location Temp. Dew Point Humidity Wind Precip. Elev Updated Type
MesoWest WILCX1 , Rock River, WY 66 °F - - North  at  - 0.00 in / hr 7004 ft 4:00 AM MDT MADIS
MesoWest RKRIVR , Rock River, WY 54 °F - - SSW  at  6 mph 0.00 in / hr 6906 ft 4:05 AM MDT MADIS
MesoWest MEDIC1 , Medicine Bow, WY 56 °F - - North  at  - 0.00 in / hr 6650 ft 4:00 AM MDT MADIS
Medicine Bow, WY 57.3 °F 45 °F 63% NW  at  3.0 mph 0.00 in / hr 6646 ft 5:12 AM MDT Normal
RAWS DODGE CREEK WY, Rock River, WY 63 °F 44 °F 49% NNW  at  7 mph 0.00 in / hr 7100 ft 4:44 AM MDT MADIS

Show More Stations Show Fewer Stations